Time;durP1;ratioP1;P1;durP2;ratioP2;P2;SDS_P1;SDS_P2;PMS_P1;PMS_P2;Temp;Humidity;BMP_temperature;BMP_pressure;BME280_temperature;BME280_humidity;BME280_pressure;Samples;Min_cycle;Max_cycle;Signal;HPM_P1;HPM_P2
2023/01/25 00:00:41;;;;;;;24.57;16.70;;;;;;;;;;5072845;28;20452;-83
2023/01/25 00:03:07;;;;;;;26.20;16.07;;;;;;;;;;5077377;28;20466;-83
2023/01/25 00:05:33;;;;;;;25.20;15.37;;;;;;;;;;5074769;28;20440;-83
2023/01/25 00:08:00;;;;;;;25.03;15.93;;;;;;;;;;5075105;28;20463;-83
2023/01/25 00:10:26;;;;;;;24.83;16.20;;;;;;;;;;5075183;28;20463;-83
2023/01/25 00:12:53;;;;;;;24.30;15.17;;;;;;;;;;5074584;28;20459;-83
2023/01/25 00:15:21;;;;;;;31.40;17.60;;;;;;;;;;5075261;28;20999;-83
2023/01/25 00:17:47;;;;;;;28.50;16.67;;;;;;;;;;5074395;28;20472;-83
2023/01/25 00:20:13;;;;;;;21.67;15.80;;;;;;;;;;5073955;28;20995;-83
2023/01/25 00:22:40;;;;;;;23.67;15.67;;;;;;;;;;5074673;28;20463;-83
2023/01/25 00:25:07;;;;;;;21.50;15.57;;;;;;;;;;5076266;28;20485;-83
2023/01/25 00:27:33;;;;;;;26.30;14.80;;;;;;;;;;5073082;28;20826;-83
2023/01/25 00:29:59;;;;;;;20.53;14.83;;;;;;;;;;5072472;28;21113;-83
2023/01/25 00:32:42;;;;;;;27.20;15.00;;;;;;;;;;5073723;28;20864;-83
2023/01/25 00:35:11;;;;;;;24.30;14.50;;;;;;;;;;5075736;28;20474;-83
2023/01/25 00:37:38;;;;;;;26.50;16.33;;;;;;;;;;5068726;28;20487;-85
2023/01/25 00:40:06;;;;;;;23.77;15.70;;;;;;;;;;5075731;28;20461;-84
2023/01/25 00:42:32;;;;;;;22.20;15.23;;;;;;;;;;5072320;28;20487;-83
2023/01/25 00:44:58;;;;;;;25.10;16.10;;;;;;;;;;5073453;28;20490;-83
2023/01/25 00:47:25;;;;;;;24.60;18.03;;;;;;;;;;5074710;28;20474;-83
2023/01/25 00:49:53;;;;;;;22.00;16.03;;;;;;;;;;5075284;28;20469;-83
2023/01/25 00:52:20;;;;;;;22.00;16.20;;;;;;;;;;5073171;28;20473;-83
2023/01/25 00:54:47;;;;;;;25.47;17.03;;;;;;;;;;5074697;28;20529;-84
2023/01/25 00:57:13;;;;;;;27.60;18.27;;;;;;;;;;5075723;28;20481;-83
2023/01/25 00:59:43;;;;;;;25.00;18.20;;;;;;;;;;5073645;28;20470;-83
2023/01/25 01:02:09;;;;;;;28.73;17.97;;;;;;;;;;5075639;28;20547;-83
2023/01/25 01:07:11;;;;;;;23.90;16.87;;;;;;;;;;5061248;28;20440;-79
2023/01/25 01:09:37;;;;;;;33.70;19.77;;;;;;;;;;5061634;28;20466;-79
2023/01/25 01:12:04;;;;;;;35.37;21.77;;;;;;;;;;5060581;28;20863;-79
2023/01/25 01:14:30;;;;;;;35.47;21.50;;;;;;;;;;5075710;28;20481;-79
2023/01/25 01:16:58;;;;;;;33.40;20.03;;;;;;;;;;5080366;28;20482;-79
2023/01/25 01:19:24;;;;;;;32.47;19.30;;;;;;;;;;5081278;28;20453;-79
2023/01/25 01:21:51;;;;;;;29.77;20.53;;;;;;;;;;5081290;28;20466;-79
2023/01/25 01:24:19;;;;;;;27.00;19.20;;;;;;;;;;5082823;28;20477;-79
2023/01/25 01:26:45;;;;;;;31.03;18.77;;;;;;;;;;5079641;28;21019;-79
2023/01/25 01:29:12;;;;;;;32.07;19.60;;;;;;;;;;5080112;28;20462;-79
2023/01/25 01:31:38;;;;;;;34.17;19.50;;;;;;;;;;5080890;28;21023;-79
2023/01/25 01:34:04;;;;;;;33.83;20.40;;;;;;;;;;5080944;28;20485;-79
2023/01/25 01:36:31;;;;;;;28.50;18.83;;;;;;;;;;5081353;28;20477;-79
2023/01/25 01:38:58;;;;;;;31.47;21.77;;;;;;;;;;5080375;28;20461;-80
2023/01/25 01:41:26;;;;;;;33.63;20.87;;;;;;;;;;5078785;28;20497;-79
2023/01/25 01:43:53;;;;;;;27.27;20.00;;;;;;;;;;5078627;28;20488;-79
2023/01/25 01:46:26;;;;;;;29.30;19.53;;;;;;;;;;5080437;28;20475;-79
2023/01/25 01:48:54;;;;;;;32.23;20.00;;;;;;;;;;5082188;28;20511;-79
2023/01/25 01:51:23;;;;;;;30.20;19.97;;;;;;;;;;5079281;28;20478;-79
2023/01/25 01:53:51;;;;;;;32.60;21.50;;;;;;;;;;5077338;28;20497;-79
2023/01/25 01:56:19;;;;;;;32.20;22.07;;;;;;;;;;5080633;28;20931;-79
2023/01/25 01:58:50;;;;;;;30.43;19.17;;;;;;;;;;5080600;28;20984;-79
2023/01/25 02:01:17;;;;;;;30.03;20.00;;;;;;;;;;5081308;28;20473;-79
2023/01/25 02:03:43;;;;;;;29.10;19.40;;;;;;;;;;5079552;28;20474;-79
2023/01/25 02:06:12;;;;;;;37.33;22.20;;;;;;;;;;5078719;28;21015;-79
2023/01/25 02:08:39;;;;;;;36.77;23.23;;;;;;;;;;5079072;28;20458;-79
2023/01/25 02:11:07;;;;;;;39.57;23.37;;;;;;;;;;5080611;28;20462;-79
2023/01/25 02:13:34;;;;;;;35.40;21.73;;;;;;;;;;5080335;28;20483;-79
2023/01/25 02:16:03;;;;;;;38.37;24.27;;;;;;;;;;5080156;28;20842;-80
2023/01/25 02:18:30;;;;;;;35.70;22.90;;;;;;;;;;5084093;28;20466;-79
2023/01/25 02:20:57;;;;;;;36.20;23.40;;;;;;;;;;5081042;28;20469;-79
2023/01/25 02:23:25;;;;;;;42.53;24.57;;;;;;;;;;5081712;28;20835;-79
2023/01/25 02:25:56;;;;;;;33.97;23.03;;;;;;;;;;5083319;28;20471;-79
2023/01/25 02:28:24;;;;;;;38.57;23.57;;;;;;;;;;5083265;28;21081;-79
2023/01/25 02:30:51;;;;;;;36.00;22.90;;;;;;;;;;5082340;28;20464;-79
2023/01/25 02:33:17;;;;;;;32.30;20.70;;;;;;;;;;5084340;28;20553;-79
2023/01/25 02:35:45;;;;;;;41.60;25.07;;;;;;;;;;5082975;28;20484;-79
2023/01/25 02:38:13;;;;;;;40.33;24.43;;;;;;;;;;5083164;28;20466;-79
2023/01/25 02:40:42;;;;;;;36.70;25.30;;;;;;;;;;5080088;28;20457;-79
2023/01/25 02:43:10;;;;;;;37.70;24.20;;;;;;;;;;5081631;28;20475;-79
2023/01/25 02:45:38;;;;;;;45.83;25.77;;;;;;;;;;5084090;28;20460;-79
2023/01/25 02:48:05;;;;;;;40.43;26.13;;;;;;;;;;5084308;28;20461;-79
2023/01/25 02:50:31;;;;;;;44.43;27.30;;;;;;;;;;5083771;28;20458;-80
2023/01/25 02:52:58;;;;;;;41.87;26.43;;;;;;;;;;5081154;28;21008;-79
2023/01/25 02:55:24;;;;;;;43.60;27.50;;;;;;;;;;5082635;28;20489;-79
2023/01/25 02:57:51;;;;;;;37.27;25.30;;;;;;;;;;5081905;28;20847;-79
2023/01/25 03:00:19;;;;;;;40.90;26.33;;;;;;;;;;5082093;28;20699;-79
2023/01/25 03:02:45;;;;;;;39.97;26.87;;;;;;;;;;5081531;28;20485;-79
2023/01/25 03:05:11;;;;;;;41.67;25.97;;;;;;;;;;5082423;28;20466;-79
2023/01/25 03:07:38;;;;;;;40.80;24.73;;;;;;;;;;5082737;28;20477;-79
2023/01/25 03:10:05;;;;;;;38.67;25.47;;;;;;;;;;5083151;28;20466;-79
2023/01/25 03:12:31;;;;;;;38.97;25.33;;;;;;;;;;5081643;28;20481;-79
2023/01/25 03:14:57;;;;;;;40.17;25.00;;;;;;;;;;5086047;28;20509;-79
2023/01/25 03:17:26;;;;;;;43.90;27.03;;;;;;;;;;5081560;28;20984;-79
2023/01/25 03:19:53;;;;;;;34.97;23.27;;;;;;;;;;5083671;28;20466;-79
2023/01/25 03:22:20;;;;;;;34.80;23.90;;;;;;;;;;5083511;28;20879;-79
2023/01/25 03:24:46;;;;;;;36.53;22.93;;;;;;;;;;5083868;28;20470;-79
2023/01/25 03:27:13;;;;;;;44.90;25.67;;;;;;;;;;5080355;28;20473;-79
2023/01/25 03:29:40;;;;;;;37.93;23.60;;;;;;;;;;5082208;28;20457;-79
2023/01/25 03:32:07;;;;;;;43.43;23.60;;;;;;;;;;5083993;28;20466;-79
2023/01/25 03:34:35;;;;;;;43.30;25.77;;;;;;;;;;5083220;28;20517;-79
2023/01/25 03:37:01;;;;;;;41.77;25.17;;;;;;;;;;5082651;28;20638;-79
2023/01/25 03:39:28;;;;;;;44.17;24.90;;;;;;;;;;5083351;28;20467;-79
2023/01/25 03:41:54;;;;;;;40.93;25.90;;;;;;;;;;5081212;28;20474;-79
2023/01/25 03:44:20;;;;;;;44.10;26.47;;;;;;;;;;5080378;28;20846;-79
2023/01/25 03:46:47;;;;;;;38.60;23.57;;;;;;;;;;5081027;28;20482;-79
2023/01/25 03:49:13;;;;;;;37.73;24.27;;;;;;;;;;5083029;28;20466;-79
2023/01/25 03:51:41;;;;;;;42.37;24.30;;;;;;;;;;5081962;28;20478;-79
2023/01/25 03:54:09;;;;;;;38.07;22.87;;;;;;;;;;5080329;28;21050;-80
2023/01/25 03:56:36;;;;;;;42.90;24.80;;;;;;;;;;5080828;28;20494;-79
2023/01/25 03:59:02;;;;;;;38.97;24.70;;;;;;;;;;5082514;28;20464;-79
2023/01/25 04:01:29;;;;;;;40.23;23.53;;;;;;;;;;5081174;28;20847;-79
2023/01/25 04:03:56;;;;;;;37.80;22.33;;;;;;;;;;5081000;28;20998;-79
2023/01/25 04:06:23;;;;;;;38.10;24.77;;;;;;;;;;5078615;28;20466;-79
2023/01/25 04:08:50;;;;;;;39.53;23.93;;;;;;;;;;5083494;28;20455;-79
2023/01/25 04:11:17;;;;;;;35.50;21.57;;;;;;;;;;5080626;28;21011;-79
2023/01/25 04:13:43;;;;;;;40.13;25.10;;;;;;;;;;5081209;28;21018;-79
2023/01/25 04:16:11;;;;;;;39.63;22.47;;;;;;;;;;5082788;28;20478;-79
2023/01/25 04:18:37;;;;;;;36.23;23.60;;;;;;;;;;5084523;28;20489;-79
2023/01/25 04:21:04;;;;;;;36.90;22.13;;;;;;;;;;5081421;28;20478;-79
2023/01/25 04:23:31;;;;;;;43.60;24.37;;;;;;;;;;5081564;28;20477;-79
2023/01/25 04:25:59;;;;;;;43.30;24.47;;;;;;;;;;5082362;28;20478;-80
2023/01/25 04:28:26;;;;;;;41.90;24.30;;;;;;;;;;5080193;28;20455;-79
2023/01/25 04:30:53;;;;;;;44.73;25.77;;;;;;;;;;5083666;28;20467;-79
2023/01/25 04:33:19;;;;;;;37.80;22.10;;;;;;;;;;5079801;28;20474;-79
2023/01/25 04:35:46;;;;;;;42.30;24.70;;;;;;;;;;5082378;28;20486;-79
2023/01/25 04:38:12;;;;;;;47.20;26.10;;;;;;;;;;5079327;28;20461;-78
2023/01/25 04:40:40;;;;;;;45.70;26.63;;;;;;;;;;5078051;28;20455;-79
2023/01/25 04:43:08;;;;;;;45.13;26.70;;;;;;;;;;5080222;28;20473;-79
2023/01/25 04:45:36;;;;;;;44.20;25.70;;;;;;;;;;5079434;28;20454;-80
2023/01/25 04:48:03;;;;;;;46.87;28.30;;;;;;;;;;5082350;28;20457;-79
2023/01/25 04:50:29;;;;;;;43.50;25.70;;;;;;;;;;5080542;28;21030;-80
2023/01/25 04:52:56;;;;;;;45.20;26.40;;;;;;;;;;5080313;28;20478;-79
2023/01/25 04:55:23;;;;;;;51.90;28.37;;;;;;;;;;5080587;28;20484;-79
2023/01/25 04:57:49;;;;;;;51.87;26.87;;;;;;;;;;5081878;28;20475;-79
2023/01/25 05:00:18;;;;;;;54.17;28.97;;;;;;;;;;5078293;28;20455;-79
2023/01/25 05:02:45;;;;;;;51.97;26.67;;;;;;;;;;5081059;28;20474;-79
2023/01/25 05:05:12;;;;;;;48.43;27.33;;;;;;;;;;5081720;28;20846;-80
2023/01/25 05:07:39;;;;;;;49.70;28.07;;;;;;;;;;5075792;27;20493;-79
2023/01/25 05:10:06;;;;;;;51.20;28.40;;;;;;;;;;5078337;28;20453;-78
2023/01/25 05:12:32;;;;;;;47.97;27.23;;;;;;;;;;5078135;28;21126;-79
2023/01/25 05:14:58;;;;;;;47.93;27.63;;;;;;;;;;5080892;28;20457;-79
2023/01/25 05:17:26;;;;;;;44.13;26.40;;;;;;;;;;5079590;28;20477;-79
2023/01/25 05:19:53;;;;;;;48.80;27.90;;;;;;;;;;5079706;28;20454;-79
2023/01/25 05:22:19;;;;;;;52.13;28.40;;;;;;;;;;5078890;28;20470;-79
2023/01/25 05:24:46;;;;;;;45.90;27.93;;;;;;;;;;5079886;28;20514;-79
2023/01/25 05:27:12;;;;;;;51.70;27.50;;;;;;;;;;5078628;28;20479;-79
2023/01/25 05:29:41;;;;;;;50.47;28.63;;;;;;;;;;5079476;28;21114;-79
2023/01/25 05:32:09;;;;;;;53.50;27.37;;;;;;;;;;5073824;28;20485;-79
2023/01/25 05:34:37;;;;;;;55.73;30.60;;;;;;;;;;5079315;28;20486;-79
2023/01/25 05:37:08;;;;;;;52.57;27.57;;;;;;;;;;5077772;28;20474;-79
2023/01/25 05:39:34;;;;;;;48.27;25.40;;;;;;;;;;5078069;28;20474;-79
2023/01/25 05:42:01;;;;;;;48.73;27.10;;;;;;;;;;5078388;28;20481;-79
2023/01/25 05:44:27;;;;;;;47.93;27.00;;;;;;;;;;5077013;28;20483;-79
2023/01/25 05:46:53;;;;;;;48.93;27.13;;;;;;;;;;5078801;28;21025;-79
2023/01/25 05:49:20;;;;;;;54.53;29.37;;;;;;;;;;5080127;28;20458;-79
2023/01/25 05:51:48;;;;;;;48.33;26.90;;;;;;;;;;5079858;28;20481;-79
2023/01/25 05:54:15;;;;;;;48.97;24.57;;;;;;;;;;5077443;28;20564;-79
2023/01/25 05:56:43;;;;;;;50.83;26.30;;;;;;;;;;5076659;28;20471;-79
2023/01/25 05:59:10;;;;;;;53.70;28.53;;;;;;;;;;5078129;28;20490;-79
2023/01/25 06:01:37;;;;;;;52.87;25.47;;;;;;;;;;5077136;28;20863;-79
2023/01/25 06:04:05;;;;;;;54.53;26.87;;;;;;;;;;5078621;28;20866;-79
2023/01/25 06:06:31;;;;;;;49.00;25.70;;;;;;;;;;5075867;28;21160;-79
2023/01/25 06:08:59;;;;;;;46.10;26.37;;;;;;;;;;5079152;28;20461;-79
2023/01/25 06:11:26;;;;;;;55.37;29.80;;;;;;;;;;5077899;28;20481;-79
2023/01/25 06:13:52;;;;;;;51.83;26.93;;;;;;;;;;5078307;28;20874;-79
2023/01/25 06:16:20;;;;;;;49.20;28.37;;;;;;;;;;5078721;28;20488;-79
2023/01/25 06:18:46;;;;;;;45.73;25.07;;;;;;;;;;5077995;28;20454;-79
2023/01/25 06:21:13;;;;;;;56.03;27.50;;;;;;;;;;5078273;28;21052;-79
2023/01/25 06:23:39;;;;;;;47.33;26.30;;;;;;;;;;5080589;28;20463;-79
2023/01/25 06:26:08;;;;;;;58.90;26.50;;;;;;;;;;5077456;28;20467;-79
2023/01/25 06:28:35;;;;;;;58.20;29.13;;;;;;;;;;5077927;28;20536;-79
2023/01/25 06:31:06;;;;;;;47.27;24.40;;;;;;;;;;5078314;28;20482;-79
2023/01/25 06:33:32;;;;;;;45.67;24.33;;;;;;;;;;5077850;28;20482;-79
2023/01/25 06:35:59;;;;;;;46.93;25.20;;;;;;;;;;5078886;28;20556;-79
2023/01/25 06:38:26;;;;;;;46.90;25.20;;;;;;;;;;5079001;28;20825;-79
2023/01/25 06:40:54;;;;;;;44.80;24.90;;;;;;;;;;5079530;28;21012;-79
2023/01/25 06:43:21;;;;;;;51.57;24.87;;;;;;;;;;5078664;28;20867;-79
2023/01/25 06:45:49;;;;;;;54.40;26.40;;;;;;;;;;5081165;28;20478;-79
2023/01/25 06:48:19;;;;;;;47.97;24.77;;;;;;;;;;5078786;28;20458;-80
2023/01/25 06:50:45;;;;;;;48.20;25.93;;;;;;;;;;5078275;28;20467;-79
2023/01/25 06:53:11;;;;;;;53.97;27.37;;;;;;;;;;5079709;28;20497;-79
2023/01/25 06:55:38;;;;;;;49.60;25.30;;;;;;;;;;5079597;28;20461;-79
2023/01/25 06:58:05;;;;;;;49.63;26.53;;;;;;;;;;5079187;28;20473;-79
2023/01/25 07:00:33;;;;;;;48.23;26.23;;;;;;;;;;5078652;28;20459;-79
2023/01/25 07:03:00;;;;;;;43.87;23.77;;;;;;;;;;5078458;28;20480;-79
2023/01/25 07:05:27;;;;;;;46.83;25.83;;;;;;;;;;5081744;28;20473;-79
2023/01/25 07:07:53;;;;;;;47.53;25.70;;;;;;;;;;5082411;28;20465;-79
2023/01/25 07:10:21;;;;;;;52.77;26.07;;;;;;;;;;5082380;28;20460;-79
2023/01/25 07:12:47;;;;;;;54.47;27.93;;;;;;;;;;5082645;28;20458;-79
2023/01/25 07:15:13;;;;;;;48.40;26.97;;;;;;;;;;5081113;28;20443;-79
2023/01/25 07:17:41;;;;;;;52.70;27.23;;;;;;;;;;5083193;28;20467;-79
2023/01/25 07:20:08;;;;;;;49.67;27.23;;;;;;;;;;5081501;28;20451;-79
2023/01/25 07:22:34;;;;;;;50.67;28.47;;;;;;;;;;5079935;28;20475;-79
2023/01/25 07:25:01;;;;;;;50.37;25.13;;;;;;;;;;5082615;28;20455;-79
2023/01/25 07:27:28;;;;;;;54.97;28.67;;;;;;;;;;5082676;28;20473;-79
2023/01/25 07:29:54;;;;;;;49.93;24.73;;;;;;;;;;5083324;28;20446;-79
2023/01/25 07:32:21;;;;;;;54.13;27.20;;;;;;;;;;5082629;28;20489;-79
2023/01/25 07:34:48;;;;;;;57.13;29.50;;;;;;;;;;5082751;28;20546;-79
2023/01/25 07:37:16;;;;;;;59.63;28.77;;;;;;;;;;5080536;28;20475;-79
2023/01/25 07:39:48;;;;;;;59.57;28.73;;;;;;;;;;5081414;28;20465;-79
2023/01/25 07:42:15;;;;;;;55.03;27.03;;;;;;;;;;5082098;28;21016;-79
2023/01/25 07:44:42;;;;;;;54.53;26.60;;;;;;;;;;5082122;28;20467;-79
2023/01/25 07:47:08;;;;;;;55.90;30.50;;;;;;;;;;5082001;28;20459;-79
2023/01/25 07:49:35;;;;;;;67.73;31.30;;;;;;;;;;5080487;28;20446;-79
2023/01/25 07:52:03;;;;;;;58.83;26.83;;;;;;;;;;5081642;28;20482;-79
2023/01/25 07:54:29;;;;;;;63.40;30.73;;;;;;;;;;5082093;28;20469;-79
2023/01/25 07:56:57;;;;;;;55.33;28.00;;;;;;;;;;5080379;28;20479;-79
2023/01/25 07:59:24;;;;;;;62.23;31.00;;;;;;;;;;5082070;28;21116;-79
2023/01/25 08:01:50;;;;;;;56.60;28.77;;;;;;;;;;5080153;28;20474;-79
2023/01/25 08:04:17;;;;;;;65.03;29.90;;;;;;;;;;5081791;28;20471;-79
2023/01/25 08:06:45;;;;;;;64.80;29.60;;;;;;;;;;5068157;28;20545;-79
2023/01/25 08:09:14;;;;;;;63.47;30.53;;;;;;;;;;5082810;28;20498;-79
2023/01/25 08:11:41;;;;;;;73.13;33.03;;;;;;;;;;5082139;28;20530;-79
2023/01/25 08:14:08;;;;;;;73.63;30.53;;;;;;;;;;5078615;28;20477;-79
2023/01/25 08:16:36;;;;;;;68.03;32.13;;;;;;;;;;5081921;28;21024;-79
2023/01/25 08:19:03;;;;;;;68.77;33.27;;;;;;;;;;5081375;28;20445;-79
2023/01/25 08:21:31;;;;;;;70.47;33.80;;;;;;;;;;5081513;28;20882;-79
2023/01/25 08:23:58;;;;;;;65.03;29.87;;;;;;;;;;5080910;28;20489;-79
2023/01/25 08:26:27;;;;;;;73.10;34.17;;;;;;;;;;5079242;28;20470;-79
2023/01/25 08:28:54;;;;;;;80.80;37.00;;;;;;;;;;5080942;28;20453;-79
2023/01/25 08:31:21;;;;;;;76.70;36.63;;;;;;;;;;5080548;28;20467;-79
2023/01/25 08:33:48;;;;;;;71.30;35.07;;;;;;;;;;5081318;28;20488;-79
2023/01/25 08:36:17;;;;;;;77.57;35.83;;;;;;;;;;5080313;28;20550;-79
2023/01/25 08:38:43;;;;;;;76.00;36.03;;;;;;;;;;5080929;28;20919;-79
2023/01/25 08:41:11;;;;;;;72.43;34.50;;;;;;;;;;5077489;28;20479;-79
2023/01/25 08:43:39;;;;;;;70.67;35.17;;;;;;;;;;5078963;28;20469;-79
2023/01/25 08:46:06;;;;;;;87.17;39.00;;;;;;;;;;5080049;28;20854;-79
2023/01/25 08:48:32;;;;;;;84.03;37.30;;;;;;;;;;5081119;28;20459;-79
2023/01/25 08:51:00;;;;;;;82.50;37.30;;;;;;;;;;5079803;28;20474;-79
2023/01/25 08:53:27;;;;;;;77.17;35.07;;;;;;;;;;5081169;28;20458;-79
2023/01/25 08:55:53;;;;;;;81.57;36.33;;;;;;;;;;5078525;28;20471;-79
2023/01/25 08:58:21;;;;;;;78.53;36.47;;;;;;;;;;5081548;28;20478;-79
2023/01/25 09:00:49;;;;;;;95.23;41.80;;;;;;;;;;5081350;28;20490;-79
2023/01/25 09:03:16;;;;;;;87.50;37.40;;;;;;;;;;5079652;28;20491;-79
2023/01/25 09:05:43;;;;;;;83.50;37.97;;;;;;;;;;5079875;28;21017;-79
2023/01/25 09:08:10;;;;;;;90.93;42.23;;;;;;;;;;5079748;28;20850;-79
2023/01/25 09:10:37;;;;;;;94.47;40.57;;;;;;;;;;5080378;28;20469;-79
2023/01/25 09:13:03;;;;;;;86.57;38.23;;;;;;;;;;5078771;28;20482;-79
2023/01/25 09:15:29;;;;;;;89.63;40.47;;;;;;;;;;5080186;28;20997;-79
2023/01/25 09:17:57;;;;;;;94.13;41.67;;;;;;;;;;5080791;28;20478;-79
2023/01/25 09:20:23;;;;;;;102.00;42.90;;;;;;;;;;5078385;28;20481;-79
2023/01/25 09:22:50;;;;;;;83.97;40.53;;;;;;;;;;5080589;28;20477;-79
2023/01/25 09:25:17;;;;;;;95.53;43.07;;;;;;;;;;5079023;28;20456;-79
2023/01/25 09:27:43;;;;;;;97.80;40.90;;;;;;;;;;5078898;28;20461;-79
2023/01/25 09:30:10;;;;;;;84.50;37.00;;;;;;;;;;5080065;28;20462;-79
2023/01/25 09:32:37;;;;;;;83.20;36.07;;;;;;;;;;5080014;28;20546;-79
2023/01/25 09:35:06;;;;;;;82.80;39.10;;;;;;;;;;5079383;28;20959;-79
2023/01/25 09:37:32;;;;;;;81.23;35.97;;;;;;;;;;5079851;28;20482;-79
2023/01/25 09:39:59;;;;;;;91.07;38.70;;;;;;;;;;5079971;28;20469;-79
2023/01/25 09:42:31;;;;;;;83.13;38.00;;;;;;;;;;5076973;28;20473;-79
2023/01/25 09:45:09;;;;;;;79.97;34.50;;;;;;;;;;5079768;28;20458;-79
2023/01/25 09:47:38;;;;;;;83.50;37.17;;;;;;;;;;5078508;28;20476;-79
2023/01/25 09:50:16;;;;;;;78.70;35.90;;;;;;;;;;5080129;28;20469;-79
2023/01/25 09:53:09;;;;;;;83.83;40.60;;;;;;;;;;5080290;28;20458;-79
2023/01/25 09:55:37;;;;;;;81.30;37.97;;;;;;;;;;5078844;28;20467;-79
2023/01/25 09:58:04;;;;;;;83.67;36.63;;;;;;;;;;5079875;28;20849;-80
2023/01/25 10:00:32;;;;;;;83.20;38.53;;;;;;;;;;5079769;28;20469;-79
2023/01/25 10:03:02;;;;;;;80.27;36.13;;;;;;;;;;5077578;28;20474;-79
2023/01/25 10:05:31;;;;;;;72.83;35.07;;;;;;;;;;5078684;28;20474;-80
2023/01/25 10:08:00;;;;;;;83.30;37.73;;;;;;;;;;5079211;28;20466;-79
2023/01/25 10:10:29;;;;;;;85.17;38.23;;;;;;;;;;5080027;28;20481;-79
2023/01/25 10:12:56;;;;;;;90.10;35.63;;;;;;;;;;5079448;28;20479;-79
2023/01/25 10:15:24;;;;;;;77.50;33.27;;;;;;;;;;5081454;28;20467;-79
2023/01/25 10:17:57;;;;;;;74.63;35.60;;;;;;;;;;5079291;28;20486;-79
2023/01/25 10:20:26;;;;;;;86.50;35.30;;;;;;;;;;5078658;28;20470;-79
2023/01/25 10:23:00;;;;;;;76.47;34.87;;;;;;;;;;5079250;28;20493;-79
2023/01/25 10:25:34;;;;;;;92.50;36.80;;;;;;;;;;5079915;28;20458;-80
2023/01/25 10:28:08;;;;;;;94.57;39.70;;;;;;;;;;5080313;28;20453;-79
2023/01/25 10:30:39;;;;;;;89.53;36.20;;;;;;;;;;5081109;28;20467;-79
2023/01/25 10:33:11;;;;;;;76.73;33.30;;;;;;;;;;5078939;28;20536;-79
2023/01/25 10:35:38;;;;;;;82.10;33.97;;;;;;;;;;5080382;28;20465;-79
2023/01/25 10:38:11;;;;;;;73.83;33.90;;;;;;;;;;5082928;28;20481;-79
2023/01/25 10:40:44;;;;;;;75.67;35.47;;;;;;;;;;5082989;28;20550;-79
2023/01/25 10:43:14;;;;;;;70.33;33.23;;;;;;;;;;5084776;28;20489;-79
2023/01/25 10:45:41;;;;;;;85.67;37.47;;;;;;;;;;5083543;28;20473;-79
2023/01/25 10:48:12;;;;;;;80.77;34.00;;;;;;;;;;5082753;28;20461;-79
2023/01/25 10:50:43;;;;;;;70.40;32.53;;;;;;;;;;5083757;28;20470;-79
2023/01/25 10:53:21;;;;;;;73.90;33.77;;;;;;;;;;5081381;28;21010;-79
2023/01/25 10:55:55;;;;;;;76.00;34.90;;;;;;;;;;5083033;28;20860;-79
2023/01/25 10:58:30;;;;;;;71.83;34.03;;;;;;;;;;5081620;28;20572;-79
2023/01/25 11:00:56;;;;;;;79.57;34.43;;;;;;;;;;5081124;28;20477;-79
2023/01/25 11:03:24;;;;;;;69.27;33.93;;;;;;;;;;5082754;28;20481;-79
2023/01/25 11:05:53;;;;;;;76.30;31.63;;;;;;;;;;5083332;28;20466;-80
2023/01/25 11:08:23;;;;;;;71.57;33.60;;;;;;;;;;5081939;28;20458;-79
2023/01/25 11:10:50;;;;;;;70.03;32.50;;;;;;;;;;5082545;28;20473;-79
2023/01/25 11:13:21;;;;;;;79.33;34.63;;;;;;;;;;5082170;28;20482;-79
2023/01/25 11:15:49;;;;;;;65.33;29.97;;;;;;;;;;5084235;28;20559;-80
2023/01/25 11:18:17;;;;;;;65.67;32.50;;;;;;;;;;5083585;28;20481;-79
2023/01/25 11:20:44;;;;;;;68.77;31.40;;;;;;;;;;5082548;28;20477;-79
2023/01/25 11:23:21;;;;;;;67.90;30.20;;;;;;;;;;5083494;28;20549;-79
2023/01/25 11:25:49;;;;;;;76.00;34.60;;;;;;;;;;5082457;28;20469;-79
2023/01/25 11:28:17;;;;;;;67.27;29.03;;;;;;;;;;5082391;28;20451;-79
2023/01/25 11:30:43;;;;;;;69.50;30.93;;;;;;;;;;5082234;28;20459;-79
2023/01/25 11:33:11;;;;;;;76.47;31.70;;;;;;;;;;5082174;28;20980;-79
2023/01/25 11:35:43;;;;;;;68.70;30.60;;;;;;;;;;5083052;27;20523;-80
2023/01/25 11:38:12;;;;;;;73.10;31.40;;;;;;;;;;5085854;28;20572;-81
2023/01/25 11:40:40;;;;;;;68.03;29.00;;;;;;;;;;5083194;28;20458;-79
2023/01/25 11:43:14;;;;;;;83.80;32.77;;;;;;;;;;5080786;28;20479;-79
2023/01/25 11:45:48;;;;;;;68.47;30.87;;;;;;;;;;5081457;28;20506;-79
2023/01/25 11:48:42;;;;;;;67.90;33.03;;;;;;;;;;5082614;28;20431;-79
2023/01/25 11:51:12;;;;;;;72.97;33.43;;;;;;;;;;5045745;28;20486;-79
2023/01/25 11:53:54;;;;;;;70.87;33.60;;;;;;;;;;5078764;28;20470;-79
2023/01/25 11:56:28;;;;;;;55.93;27.63;;;;;;;;;;5080685;28;20463;-79
2023/01/25 11:59:02;;;;;;;67.57;29.03;;;;;;;;;;5081674;28;20574;-79
2023/01/25 12:01:34;;;;;;;65.43;30.30;;;;;;;;;;5080987;28;21221;-79
2023/01/25 12:04:09;;;;;;;66.53;30.27;;;;;;;;;;5082337;28;20824;-79
2023/01/25 12:06:39;;;;;;;61.20;29.67;;;;;;;;;;5080253;28;20470;-79
2023/01/25 12:09:18;;;;;;;60.53;29.40;;;;;;;;;;5082331;28;20450;-79
2023/01/25 12:12:00;;;;;;;64.93;30.43;;;;;;;;;;5080652;28;20466;-79
2023/01/25 12:14:35;;;;;;;69.80;31.93;;;;;;;;;;5080654;28;20482;-79
2023/01/25 12:17:11;;;;;;;69.67;31.20;;;;;;;;;;5081311;28;20482;-79
2023/01/25 12:19:42;;;;;;;71.80;31.17;;;;;;;;;;5081251;28;20436;-79
2023/01/25 12:22:14;;;;;;;67.53;31.20;;;;;;;;;;5079893;28;20840;-79
2023/01/25 12:24:45;;;;;;;57.93;31.00;;;;;;;;;;5082782;28;20463;-79
2023/01/25 12:27:18;;;;;;;66.23;33.80;;;;;;;;;;5080999;28;20475;-83
2023/01/25 12:29:49;;;;;;;64.43;31.77;;;;;;;;;;5082796;28;20473;-79
2023/01/25 12:32:19;;;;;;;69.53;31.70;;;;;;;;;;5081241;28;20479;-80
2023/01/25 12:34:46;;;;;;;65.10;31.40;;;;;;;;;;5080508;28;20486;-79
2023/01/25 12:37:16;;;;;;;64.77;31.30;;;;;;;;;;5080505;28;20466;-79
2023/01/25 12:39:45;;;;;;;70.53;29.33;;;;;;;;;;5079448;28;20490;-79
2023/01/25 12:42:15;;;;;;;65.90;33.30;;;;;;;;;;5078983;28;20467;-79
2023/01/25 12:44:44;;;;;;;65.70;32.73;;;;;;;;;;5080508;28;20854;-79
2023/01/25 12:47:14;;;;;;;73.23;29.70;;;;;;;;;;5081193;28;20473;-79
2023/01/25 12:49:42;;;;;;;65.93;31.43;;;;;;;;;;5081683;28;20512;-79
2023/01/25 12:52:15;;;;;;;62.40;31.50;;;;;;;;;;5081343;28;20467;-79
2023/01/25 12:54:45;;;;;;;56.80;27.80;;;;;;;;;;5083303;28;20470;-79
2023/01/25 12:57:16;;;;;;;52.73;24.87;;;;;;;;;;5078868;28;20557;-79
2023/01/25 12:59:46;;;;;;;58.30;28.80;;;;;;;;;;5078049;28;20478;-79
2023/01/25 13:02:31;;;;;;;50.50;26.10;;;;;;;;;;5080734;28;20490;-79
2023/01/25 13:05:02;;;;;;;52.80;27.90;;;;;;;;;;5080651;28;20502;-79
2023/01/25 13:07:33;;;;;;;52.23;24.97;;;;;;;;;;5080194;28;20805;-79
2023/01/25 13:10:03;;;;;;;52.17;26.30;;;;;;;;;;5081431;28;20839;-79
2023/01/25 13:12:29;;;;;;;57.37;26.33;;;;;;;;;;5078465;28;20599;-79
2023/01/25 13:14:56;;;;;;;53.53;26.27;;;;;;;;;;5081357;28;20457;-79
2023/01/25 13:17:24;;;;;;;57.63;25.57;;;;;;;;;;5080142;28;20470;-79
2023/01/25 13:19:52;;;;;;;53.60;26.80;;;;;;;;;;5081704;28;20481;-79
2023/01/25 13:22:37;;;;;;;53.00;27.07;;;;;;;;;;5080544;28;20844;-79
2023/01/25 13:25:18;;;;;;;62.00;29.23;;;;;;;;;;5079161;28;20517;-79
2023/01/25 13:27:45;;;;;;;53.43;27.60;;;;;;;;;;5079681;28;20455;-79
2023/01/25 13:30:26;;;;;;;62.57;28.13;;;;;;;;;;5079884;28;20459;-79
2023/01/25 13:32:57;;;;;;;58.80;28.10;;;;;;;;;;5076787;28;20496;-79
2023/01/25 13:35:37;;;;;;;64.47;29.27;;;;;;;;;;5079458;28;20470;-79
2023/01/25 13:38:05;;;;;;;59.23;29.93;;;;;;;;;;5081949;28;20483;-79
2023/01/25 13:40:34;;;;;;;57.70;30.20;;;;;;;;;;5079592;28;20474;-79
2023/01/25 13:43:03;;;;;;;66.60;30.47;;;;;;;;;;5081385;28;20473;-79
2023/01/25 13:45:30;;;;;;;57.47;28.07;;;;;;;;;;5077925;28;20522;-79
2023/01/25 13:48:01;;;;;;;66.07;28.97;;;;;;;;;;5081089;28;20472;-79
2023/01/25 13:50:30;;;;;;;62.13;29.33;;;;;;;;;;5080247;28;20477;-79
2023/01/25 13:52:57;;;;;;;63.53;29.53;;;;;;;;;;5080059;28;20481;-79
2023/01/25 13:55:25;;;;;;;68.93;33.60;;;;;;;;;;5080276;28;20462;-79
2023/01/25 13:57:53;;;;;;;66.70;32.97;;;;;;;;;;5077634;28;20442;-79
2023/01/25 14:00:20;;;;;;;65.50;30.73;;;;;;;;;;5079720;28;20462;-79
2023/01/25 14:02:52;;;;;;;68.93;31.00;;;;;;;;;;5079265;28;20454;-79
2023/01/25 14:05:19;;;;;;;67.60;32.30;;;;;;;;;;5081377;28;20470;-79
2023/01/25 14:07:47;;;;;;;71.63;33.70;;;;;;;;;;5079184;28;21010;-79
2023/01/25 14:10:17;;;;;;;66.77;33.00;;;;;;;;;;5079085;28;20463;-79
2023/01/25 14:12:44;;;;;;;70.70;32.47;;;;;;;;;;5082367;28;20458;-79
2023/01/25 14:15:16;;;;;;;68.93;32.70;;;;;;;;;;5084499;28;20493;-79
2023/01/25 14:17:42;;;;;;;79.03;34.07;;;;;;;;;;5083478;28;20442;-79
2023/01/25 14:20:17;;;;;;;79.13;33.87;;;;;;;;;;5083373;28;20484;-79
2023/01/25 14:22:47;;;;;;;81.77;36.17;;;;;;;;;;5082754;28;20453;-79
2023/01/25 14:25:14;;;;;;;77.03;37.27;;;;;;;;;;5082413;28;20458;-79